createdAt,value
2022-07-26T00:09:48.364Z,19.64
2022-07-26T00:19:55.923Z,19.53
2022-07-26T00:30:03.048Z,19.53
2022-07-26T00:40:12.455Z,19.51
2022-07-26T00:50:20.978Z,19.50
2022-07-26T01:00:28.037Z,19.38
2022-07-26T01:10:34.140Z,19.28
2022-07-26T01:20:40.646Z,19.26
2022-07-26T01:30:47.767Z,19.30
2022-07-26T01:40:54.767Z,19.34
2022-07-26T01:51:02.374Z,19.34
2022-07-26T02:01:10.083Z,19.33
2022-07-26T02:11:17.278Z,19.24
2022-07-26T02:21:24.385Z,19.16
2022-07-26T02:31:32.691Z,18.99
2022-07-26T02:41:38.497Z,18.82
2022-07-26T02:51:46.355Z,18.72
2022-07-26T03:01:53.521Z,18.69
2022-07-26T03:12:00.943Z,18.78
2022-07-26T03:22:08.147Z,18.77
2022-07-26T03:32:15.207Z,18.78
2022-07-26T03:42:22.286Z,18.96
2022-07-26T03:52:29.337Z,19.58
2022-07-26T04:02:36.496Z,19.86
2022-07-26T04:12:43.767Z,20.35
2022-07-26T04:22:51.066Z,21.49
2022-07-26T04:32:58.467Z,22.54
2022-07-26T04:43:05.861Z,23.23
2022-07-26T04:53:16.831Z,22.68
2022-07-26T05:03:21.772Z,22.47
2022-07-26T05:13:29.570Z,22.37
2022-07-26T05:23:38.031Z,22.29
2022-07-26T05:33:45.228Z,22.20
2022-07-26T05:43:52.882Z,22.10
2022-07-26T05:54:00.148Z,22.05
2022-07-26T06:04:07.298Z,21.88
2022-07-26T06:14:14.990Z,21.75
2022-07-26T06:24:22.470Z,21.66
2022-07-26T06:34:29.754Z,21.51
2022-07-26T06:44:36.965Z,21.25
2022-07-26T06:54:44.086Z,20.95
2022-07-26T07:04:51.522Z,20.49
2022-07-26T07:14:58.726Z,20.27
2022-07-26T07:25:06.448Z,19.88
2022-07-26T07:35:12.654Z,19.45
2022-07-26T07:45:19.011Z,19.30
2022-07-26T07:55:43.840Z,19.38
2022-07-26T08:05:52.423Z,19.43
2022-07-26T08:15:59.314Z,19.38
2022-07-26T08:26:07.147Z,19.38
2022-07-26T08:36:14.704Z,19.50
2022-07-26T08:46:25.341Z,19.65
2022-07-26T08:56:33.913Z,19.89
2022-07-26T09:06:40.987Z,20.02
2022-07-26T09:16:57.735Z,20.02
2022-07-26T09:27:07.179Z,20.10
2022-07-26T09:37:14.520Z,20.15
2022-07-26T09:47:21.805Z,20.37
2022-07-26T09:57:29.126Z,20.12
2022-07-26T10:07:37.933Z,19.85
2022-07-26T10:17:41.972Z,19.64
2022-07-26T10:27:51.843Z,19.51
2022-07-26T10:54:22.364Z,19.89
2022-07-26T11:04:29.522Z,19.60
2022-07-26T11:14:36.640Z,19.39
2022-07-26T11:24:44.344Z,19.62
2022-07-26T11:34:59.134Z,20.09
2022-07-26T11:45:10.719Z,20.20
2022-07-26T11:55:26.347Z,20.18
2022-07-26T12:05:33.616Z,20.38
2022-07-26T12:15:52.880Z,20.58
2022-07-26T12:26:18.962Z,20.63
2022-07-26T12:36:29.064Z,20.74
2022-07-26T12:46:38.250Z,20.81
2022-07-26T12:56:46.486Z,20.87
2022-07-26T13:06:56.339Z,21.00
2022-07-26T13:17:05.022Z,20.89
2022-07-26T13:27:12.313Z,20.92
2022-07-26T13:37:19.407Z,21.16
2022-07-26T13:47:26.370Z,21.24
2022-07-26T13:57:48.039Z,21.27
2022-07-26T14:08:01.260Z,21.16
2022-07-26T14:18:08.760Z,21.02
2022-07-26T14:28:15.134Z,20.92
2022-07-26T14:38:26.797Z,20.84
2022-07-26T14:48:53.639Z,20.86
2022-07-26T14:59:01.798Z,20.96
2022-07-26T15:09:08.998Z,21.07
2022-07-26T15:19:16.169Z,21.15
2022-07-26T15:29:23.734Z,21.46
2022-07-26T17:32:52.129Z,21.67
2022-07-26T17:43:00.751Z,21.62
2022-07-26T17:53:08.130Z,21.61
2022-07-26T18:03:14.473Z,21.54
2022-07-26T18:13:21.895Z,21.42
2022-07-26T18:23:29.089Z,21.22
2022-07-26T18:33:36.219Z,21.03
2022-07-26T18:43:43.355Z,20.92
2022-07-26T18:53:50.495Z,20.74
2022-07-26T19:14:04.292Z,20.13
2022-07-26T19:24:11.573Z,19.93
2022-07-26T19:34:17.703Z,19.74
2022-07-26T19:44:24.915Z,19.57
2022-07-26T19:54:32.035Z,19.43
2022-07-26T20:04:42.899Z,19.33
2022-07-26T20:14:52.994Z,19.29
2022-07-26T20:25:00.873Z,19.25
2022-07-26T20:35:09.368Z,19.13
2022-07-26T20:45:16.524Z,19.11
2022-07-26T20:55:23.217Z,19.05
2022-07-26T21:05:32.764Z,18.96
2022-07-26T21:15:42.271Z,18.90
2022-07-26T21:25:49.553Z,18.85
2022-07-26T21:36:05.677Z,18.79
2022-07-26T21:46:13.734Z,18.65
2022-07-26T21:56:21.168Z,18.52
2022-07-26T22:06:28.604Z,18.50
2022-07-26T22:16:36.031Z,18.29
2022-07-26T22:26:43.413Z,18.17
2022-07-26T22:36:51.063Z,18.00
2022-07-26T22:46:58.272Z,17.85
2022-07-26T22:57:05.519Z,17.63
2022-07-26T23:07:13.044Z,17.37
2022-07-26T23:17:20.781Z,17.14
2022-07-26T23:27:27.993Z,17.00
2022-07-26T23:37:35.127Z,16.90
2022-07-26T23:47:42.595Z,16.78
2022-07-26T23:57:49.772Z,16.64
